createdAt,value
2023-03-30T00:00:57.714Z,100.00
2023-03-30T00:03:27.490Z,100.00
2023-03-30T00:05:56.783Z,100.00
2023-03-30T00:08:28.013Z,100.00
2023-03-30T00:11:00.624Z,100.00
2023-03-30T00:13:28.579Z,100.00
2023-03-30T00:15:57.570Z,100.00
2023-03-30T00:18:25.302Z,100.00
2023-03-30T00:20:53.517Z,100.00
2023-03-30T00:23:21.373Z,100.00
2023-03-30T00:25:49.263Z,100.00
2023-03-30T00:28:16.948Z,100.00
2023-03-30T00:30:44.706Z,100.00
2023-03-30T00:33:13.993Z,100.00
2023-03-30T00:35:41.758Z,100.00
2023-03-30T00:38:09.447Z,100.00
2023-03-30T00:40:38.434Z,100.00
2023-03-30T00:43:07.527Z,100.00
2023-03-30T00:45:36.632Z,100.00
2023-03-30T00:48:06.511Z,100.00
2023-03-30T00:50:39.010Z,100.00
2023-03-30T00:53:10.102Z,100.00
2023-03-30T00:55:39.922Z,100.00
2023-03-30T00:58:10.017Z,100.00
2023-03-30T01:00:39.623Z,100.00
2023-03-30T01:03:11.729Z,100.00
2023-03-30T01:05:42.343Z,100.00
2023-03-30T01:08:14.011Z,100.00
2023-03-30T01:10:41.800Z,100.00
2023-03-30T01:13:09.879Z,100.00
2023-03-30T01:15:40.984Z,100.00
2023-03-30T01:18:19.729Z,100.00
2023-03-30T01:21:05.480Z,100.00
2023-03-30T01:23:52.068Z,100.00
2023-03-30T01:26:35.696Z,100.00
2023-03-30T01:29:09.019Z,100.00
2023-03-30T01:31:50.383Z,100.00
2023-03-30T01:34:32.364Z,100.00
2023-03-30T01:37:29.988Z,100.00
2023-03-30T01:40:02.226Z,100.00
2023-03-30T01:42:35.908Z,100.00
2023-03-30T01:45:09.915Z,100.00
2023-03-30T01:47:40.750Z,100.00
2023-03-30T01:50:10.364Z,100.00
2023-03-30T01:52:41.222Z,100.00
2023-03-30T01:55:14.834Z,100.00
2023-03-30T01:57:45.542Z,100.00
2023-03-30T02:00:15.102Z,100.00
2023-03-30T02:02:45.376Z,100.00
2023-03-30T02:05:18.013Z,100.00
2023-03-30T02:07:47.924Z,100.00
2023-03-30T02:10:18.894Z,100.00
2023-03-30T02:12:47.910Z,100.00
2023-03-30T02:15:17.945Z,100.00
2023-03-30T02:17:47.600Z,100.00
2023-03-30T02:20:17.581Z,100.00
2023-03-30T02:22:45.847Z,100.00
2023-03-30T02:25:14.350Z,100.00
2023-03-30T02:27:43.492Z,100.00
2023-03-30T02:30:11.576Z,100.00
2023-03-30T02:32:42.469Z,100.00
2023-03-30T02:35:22.328Z,100.00
2023-03-30T02:38:02.184Z,100.00
2023-03-30T02:40:34.935Z,100.00
2023-03-30T02:43:14.922Z,100.00
2023-03-30T02:45:47.631Z,100.00
2023-03-30T02:48:23.066Z,100.00
2023-03-30T02:50:55.611Z,100.00
2023-03-30T02:53:27.400Z,100.00
2023-03-30T02:56:03.964Z,100.00
2023-03-30T02:58:36.226Z,100.00
2023-03-30T03:01:06.044Z,100.00
2023-03-30T03:03:36.042Z,100.00
2023-03-30T03:06:04.778Z,100.00
2023-03-30T03:08:35.260Z,100.00
2023-03-30T03:11:03.303Z,100.00
2023-03-30T03:13:32.098Z,100.00
2023-03-30T03:16:04.069Z,100.00
2023-03-30T03:18:32.062Z,100.00
2023-03-30T03:20:59.725Z,100.00
2023-03-30T03:23:27.450Z,100.00
2023-03-30T03:25:55.156Z,100.00
2023-03-30T03:28:22.833Z,100.00
2023-03-30T03:30:50.573Z,100.00
2023-03-30T03:33:20.416Z,100.00
2023-03-30T03:35:48.336Z,100.00
2023-03-30T03:38:16.180Z,100.00
2023-03-30T03:40:43.887Z,100.00
2023-03-30T03:43:11.548Z,100.00
2023-03-30T03:45:39.250Z,100.00
2023-03-30T03:48:08.355Z,100.00
2023-03-30T03:50:38.288Z,100.00
2023-03-30T03:53:06.062Z,100.00
2023-03-30T03:55:35.449Z,100.00
2023-03-30T03:58:03.200Z,100.00
2023-03-30T04:00:30.939Z,100.00
2023-03-30T04:02:59.036Z,100.00
2023-03-30T04:05:27.029Z,100.00
2023-03-30T04:07:56.870Z,100.00
2023-03-30T04:10:27.214Z,100.00
2023-03-30T04:12:56.012Z,100.00
2023-03-30T04:15:23.696Z,100.00
2023-03-30T04:17:58.140Z,100.00
2023-03-30T04:20:26.098Z,100.00
2023-03-30T04:22:54.490Z,100.00
2023-03-30T04:25:25.787Z,100.00
2023-03-30T04:27:53.676Z,100.00
2023-03-30T04:30:22.477Z,100.00
2023-03-30T04:33:02.546Z,100.00
2023-03-30T04:35:31.935Z,100.00
2023-03-30T04:38:00.246Z,100.00
2023-03-30T04:40:29.362Z,100.00
2023-03-30T04:43:02.224Z,100.00
2023-03-30T04:45:33.032Z,100.00
2023-03-30T04:48:00.769Z,100.00
2023-03-30T04:50:28.502Z,100.00
2023-03-30T04:52:56.241Z,100.00
2023-03-30T04:55:24.038Z,100.00
2023-03-30T04:57:53.203Z,100.00
2023-03-30T05:00:21.360Z,100.00
2023-03-30T05:02:49.109Z,100.00
2023-03-30T05:05:16.975Z,100.00
2023-03-30T05:07:44.700Z,100.00
2023-03-30T05:10:12.352Z,100.00
2023-03-30T05:12:39.968Z,100.00
2023-03-30T05:15:09.816Z,100.00
2023-03-30T05:17:38.610Z,100.00
2023-03-30T05:20:08.593Z,100.00
2023-03-30T05:22:36.580Z,100.00
2023-03-30T05:25:04.468Z,100.00
2023-03-30T05:27:32.142Z,100.00
2023-03-30T05:29:59.896Z,100.00
2023-03-30T05:32:29.331Z,100.00
2023-03-30T05:34:57.051Z,100.00
2023-03-30T05:37:24.733Z,100.00
2023-03-30T05:39:52.400Z,100.00
2023-03-30T05:42:20.104Z,100.00
2023-03-30T05:44:47.785Z,100.00
2023-03-30T05:47:16.526Z,100.00
2023-03-30T05:49:45.986Z,100.00
2023-03-30T05:52:13.663Z,100.00
2023-03-30T05:54:41.431Z,100.00
2023-03-30T05:57:09.142Z,100.00
2023-03-30T05:59:37.369Z,100.00
2023-03-30T06:02:08.410Z,100.00
2023-03-30T06:04:37.283Z,100.00
2023-03-30T06:07:06.533Z,100.00
2023-03-30T06:09:34.226Z,100.00
2023-03-30T06:12:02.637Z,100.00
2023-03-30T06:14:30.270Z,100.00
2023-03-30T06:16:58.242Z,100.00
2023-03-30T06:19:26.006Z,100.00
2023-03-30T06:21:54.535Z,100.00
2023-03-30T06:24:23.663Z,100.00
2023-03-30T06:26:51.473Z,100.00
2023-03-30T06:29:19.332Z,100.00
2023-03-30T06:31:47.988Z,100.00
2023-03-30T06:34:15.699Z,100.00
2023-03-30T06:36:46.082Z,100.00
2023-03-30T06:39:13.971Z,100.00
2023-03-30T06:41:43.103Z,100.00
2023-03-30T06:44:14.737Z,100.00
2023-03-30T06:46:42.772Z,100.00
2023-03-30T06:49:13.007Z,100.00
2023-03-30T06:51:40.681Z,100.00
2023-03-30T06:54:08.293Z,100.00
2023-03-30T06:56:35.989Z,100.00
2023-03-30T06:59:05.735Z,100.00
2023-03-30T07:01:33.562Z,100.00
2023-03-30T07:04:02.660Z,100.00
2023-03-30T07:06:30.493Z,100.00
2023-03-30T07:08:58.111Z,100.00
2023-03-30T07:11:26.242Z,100.00
2023-03-30T07:13:56.242Z,100.00
2023-03-30T07:16:25.781Z,100.00
2023-03-30T07:18:55.512Z,100.00
2023-03-30T07:21:23.378Z,100.00
2023-03-30T07:23:51.714Z,100.00
2023-03-30T07:26:19.416Z,100.00
2023-03-30T07:28:47.030Z,100.00
2023-03-30T07:31:15.324Z,100.00
2023-03-30T07:33:44.580Z,100.00
2023-03-30T07:36:12.295Z,100.00
2023-03-30T07:38:40.154Z,100.00
2023-03-30T07:41:08.634Z,100.00
2023-03-30T07:43:36.452Z,100.00
2023-03-30T07:46:04.302Z,100.00
2023-03-30T07:48:31.978Z,100.00
2023-03-30T07:51:05.684Z,100.00
2023-03-30T07:53:33.715Z,100.00
2023-03-30T07:56:01.689Z,100.00
2023-03-30T07:58:29.444Z,100.00
2023-03-30T08:00:57.223Z,100.00
2023-03-30T08:03:25.300Z,100.00
2023-03-30T08:05:54.069Z,100.00
2023-03-30T08:08:23.233Z,100.00
2023-03-30T08:10:50.958Z,100.00
2023-03-30T08:13:20.597Z,100.00
2023-03-30T08:15:50.908Z,100.00
2023-03-30T08:18:18.642Z,100.00
2023-03-30T08:20:46.314Z,100.00
2023-03-30T08:23:14.039Z,100.00
2023-03-30T08:25:45.264Z,100.00
2023-03-30T08:28:14.435Z,100.00
2023-03-30T08:30:42.058Z,100.00
2023-03-30T08:33:09.951Z,100.00
2023-03-30T08:35:37.587Z,100.00
2023-03-30T08:38:05.275Z,100.00
2023-03-30T08:40:32.989Z,100.00
2023-03-30T08:43:10.448Z,100.00
2023-03-30T08:45:41.156Z,100.00
2023-03-30T08:48:16.270Z,100.00
2023-03-30T08:50:47.649Z,100.00
2023-03-30T08:53:15.386Z,100.00
2023-03-30T08:55:44.408Z,100.00
2023-03-30T08:58:17.606Z,100.00
2023-03-30T09:00:47.789Z,100.00
2023-03-30T09:03:19.333Z,100.00
2023-03-30T09:05:51.132Z,100.00
2023-03-30T09:08:21.649Z,100.00
2023-03-30T09:10:53.497Z,100.00
2023-03-30T09:13:24.714Z,100.00
2023-03-30T09:15:57.046Z,100.00
2023-03-30T09:18:27.050Z,100.00
2023-03-30T09:20:56.352Z,100.00
2023-03-30T09:23:25.572Z,100.00
2023-03-30T09:26:01.481Z,100.00
2023-03-30T09:28:34.528Z,100.00
2023-03-30T09:31:04.432Z,100.00
2023-03-30T09:33:37.044Z,100.00
2023-03-30T09:36:11.747Z,100.00
2023-03-30T09:38:42.063Z,100.00
2023-03-30T09:41:19.265Z,100.00
2023-03-30T09:43:49.071Z,100.00
2023-03-30T09:46:16.935Z,100.00
2023-03-30T09:48:45.496Z,100.00
2023-03-30T09:51:20.868Z,100.00
2023-03-30T09:53:49.977Z,100.00
2023-03-30T09:56:28.488Z,100.00
2023-03-30T09:58:57.717Z,100.00
2023-03-30T10:01:35.934Z,100.00
2023-03-30T10:04:08.392Z,100.00
2023-03-30T10:06:38.265Z,100.00
2023-03-30T10:09:09.002Z,100.00
2023-03-30T10:11:38.604Z,100.00
2023-03-30T10:14:07.898Z,100.00
2023-03-30T10:16:36.705Z,100.00
2023-03-30T10:19:05.704Z,100.00
2023-03-30T10:21:37.776Z,100.00
2023-03-30T10:24:08.196Z,98.88
2023-03-30T10:26:37.630Z,98.34
2023-03-30T10:29:07.414Z,96.92
2023-03-30T10:31:38.052Z,96.36
2023-03-30T10:34:06.857Z,95.20
2023-03-30T10:36:37.128Z,95.66
2023-03-30T10:39:07.488Z,95.63
2023-03-30T10:41:37.165Z,94.69
2023-03-30T10:44:17.156Z,94.15
2023-03-30T10:46:46.383Z,91.49
2023-03-30T10:49:18.262Z,90.20
2023-03-30T10:51:54.120Z,91.58
2023-03-30T10:54:27.385Z,92.44
2023-03-30T10:56:56.583Z,90.24
2023-03-30T10:59:32.324Z,87.08
2023-03-30T11:02:18.166Z,86.36
2023-03-30T11:04:47.323Z,86.70
2023-03-30T11:07:18.685Z,85.58
2023-03-30T11:09:49.071Z,85.32
2023-03-30T11:12:19.906Z,85.37
2023-03-30T11:14:48.376Z,85.95
2023-03-30T11:17:21.415Z,83.81
2023-03-30T11:19:51.236Z,82.84
2023-03-30T11:22:25.591Z,82.30
2023-03-30T11:24:55.270Z,81.54
2023-03-30T11:27:27.994Z,82.39
2023-03-30T11:29:58.181Z,79.24
2023-03-30T11:32:31.114Z,76.05
2023-03-30T11:35:02.776Z,76.60
2023-03-30T11:37:34.351Z,75.11
2023-03-30T11:40:11.309Z,76.00
2023-03-30T11:42:39.119Z,77.55
2023-03-30T11:45:18.743Z,79.50
2023-03-30T11:48:01.601Z,76.85
2023-03-30T11:50:36.221Z,77.66
2023-03-30T11:53:11.325Z,81.15
2023-03-30T11:55:45.432Z,81.71
2023-03-30T11:58:18.544Z,83.76
2023-03-30T12:00:53.746Z,83.17
2023-03-30T12:03:28.115Z,82.03
2023-03-30T12:06:01.436Z,81.10
2023-03-30T12:08:42.205Z,81.24
2023-03-30T12:11:13.576Z,81.15
2023-03-30T12:13:50.783Z,82.05
2023-03-30T12:16:20.889Z,82.90
2023-03-30T12:18:54.930Z,83.44
2023-03-30T12:21:29.912Z,82.43
2023-03-30T12:24:02.217Z,81.70
2023-03-30T12:26:31.229Z,83.82
2023-03-30T12:31:49.377Z,86.57
2023-03-30T12:34:17.576Z,87.04
2023-03-30T12:36:51.064Z,86.49
2023-03-30T12:39:25.979Z,87.29
2023-03-30T12:42:04.381Z,85.79
2023-03-30T12:44:36.438Z,86.75
2023-03-30T12:47:12.286Z,87.44
2023-03-30T12:49:47.160Z,88.12
2023-03-30T12:52:18.057Z,85.11
2023-03-30T12:54:54.908Z,85.22
2023-03-30T12:57:29.273Z,85.72
2023-03-30T13:00:09.623Z,86.21
2023-03-30T13:02:46.475Z,83.60
2023-03-30T13:05:20.995Z,84.71
2023-03-30T13:07:51.309Z,86.15
2023-03-30T13:10:36.922Z,84.89
2023-03-30T13:13:05.949Z,87.47
2023-03-30T13:15:35.980Z,86.48
2023-03-30T13:18:04.953Z,85.21
2023-03-30T13:20:34.220Z,84.25
2023-03-30T13:23:16.696Z,84.40
2023-03-30T13:25:49.645Z,84.33
2023-03-30T13:28:37.402Z,83.91
2023-03-30T13:31:11.599Z,83.81
2023-03-30T13:33:42.745Z,84.75
2023-03-30T13:36:13.570Z,85.49
2023-03-30T13:38:53.174Z,86.89
2023-03-30T13:41:28.231Z,88.23
2023-03-30T13:44:05.594Z,86.84
2023-03-30T13:46:36.536Z,88.96
2023-03-30T13:49:16.601Z,89.40
2023-03-30T13:51:44.392Z,86.45
2023-03-30T13:54:15.013Z,85.22
2023-03-30T13:56:47.168Z,87.17
2023-03-30T13:59:17.470Z,85.90
2023-03-30T14:01:48.232Z,84.70
2023-03-30T14:04:16.379Z,84.56
2023-03-30T14:06:45.806Z,85.47
2023-03-30T14:09:14.533Z,86.04
2023-03-30T14:11:44.751Z,88.07
2023-03-30T14:14:17.803Z,88.27
2023-03-30T14:16:45.445Z,88.58
2023-03-30T14:19:18.659Z,90.71
2023-03-30T14:21:47.441Z,91.65
2023-03-30T14:24:17.024Z,90.31
2023-03-30T14:26:46.787Z,90.07
2023-03-30T14:29:28.596Z,90.92
2023-03-30T14:32:07.986Z,90.42
2023-03-30T14:34:37.528Z,91.76
2023-03-30T14:37:06.489Z,93.31
2023-03-30T14:39:37.178Z,91.61
2023-03-30T14:42:10.406Z,92.14
2023-03-30T14:44:41.417Z,91.45
2023-03-30T14:47:09.310Z,90.73
2023-03-30T14:49:37.792Z,92.37
2023-03-30T14:52:09.450Z,91.99
2023-03-30T14:54:38.222Z,89.86
2023-03-30T14:57:10.374Z,90.32
2023-03-30T14:59:44.452Z,90.67
2023-03-30T15:02:19.215Z,91.91
2023-03-30T15:04:47.080Z,92.39
2023-03-30T15:07:16.259Z,92.70
2023-03-30T15:09:46.090Z,90.02
2023-03-30T15:12:19.177Z,91.89
2023-03-30T15:14:49.209Z,93.01
2023-03-30T15:17:19.662Z,93.18
2023-03-30T15:19:48.463Z,93.66
2023-03-30T15:22:21.812Z,92.91
2023-03-30T15:24:49.535Z,93.14
2023-03-30T15:27:17.892Z,92.42
2023-03-30T15:29:47.198Z,92.43
2023-03-30T15:32:18.295Z,92.98
2023-03-30T15:35:04.121Z,91.30
2023-03-30T15:37:33.228Z,91.38
2023-03-30T15:40:01.053Z,90.20
2023-03-30T15:42:30.551Z,90.20
2023-03-30T15:45:04.869Z,91.78
2023-03-30T15:47:34.776Z,92.52
2023-03-30T15:50:02.727Z,92.05
2023-03-30T15:52:34.083Z,92.06
2023-03-30T15:55:04.108Z,92.10
2023-03-30T15:57:32.038Z,92.03
2023-03-30T16:00:01.932Z,92.67
2023-03-30T16:02:39.161Z,93.42
2023-03-30T16:05:07.879Z,93.39
2023-03-30T16:07:36.281Z,93.02
2023-03-30T16:10:03.967Z,95.61
2023-03-30T16:12:32.355Z,95.96
2023-03-30T16:15:00.019Z,95.03
2023-03-30T16:17:27.677Z,95.70
2023-03-30T16:19:56.701Z,95.45
2023-03-30T16:22:24.452Z,95.29
2023-03-30T16:24:53.298Z,95.24
2023-03-30T16:27:22.098Z,96.53
2023-03-30T16:29:49.809Z,97.36
2023-03-30T16:32:17.606Z,95.84
2023-03-30T16:34:46.265Z,95.64
2023-03-30T16:37:15.334Z,96.94
2023-03-30T16:39:43.749Z,97.15
2023-03-30T16:42:11.463Z,96.91
2023-03-30T16:44:39.109Z,96.41
2023-03-30T16:47:07.293Z,96.60
2023-03-30T16:49:34.956Z,95.74
2023-03-30T16:52:03.012Z,96.59
2023-03-30T16:54:33.153Z,95.50
2023-03-30T16:57:01.365Z,96.24
2023-03-30T16:59:30.743Z,96.70
2023-03-30T17:01:58.880Z,97.79
2023-03-30T17:04:26.952Z,97.98
2023-03-30T17:06:55.114Z,98.84
2023-03-30T17:09:23.362Z,98.88
2023-03-30T17:11:52.527Z,99.42
2023-03-30T17:14:23.397Z,99.17
2023-03-30T17:16:51.182Z,99.44
2023-03-30T17:19:18.841Z,99.85
2023-03-30T17:21:46.594Z,100.00
2023-03-30T17:24:16.502Z,100.00
2023-03-30T17:26:44.256Z,100.00
2023-03-30T17:29:13.302Z,100.00
2023-03-30T17:31:45.866Z,100.00
2023-03-30T17:34:14.005Z,100.00
2023-03-30T17:36:41.694Z,100.00
2023-03-30T17:39:11.063Z,100.00
2023-03-30T17:41:39.017Z,100.00
2023-03-30T17:44:08.783Z,100.00
2023-03-30T17:46:37.977Z,100.00
2023-03-30T17:49:05.706Z,100.00
2023-03-30T17:51:33.378Z,100.00
2023-03-30T17:54:01.090Z,100.00
2023-03-30T17:56:28.903Z,100.00
2023-03-30T17:58:56.564Z,100.00
2023-03-30T18:01:24.252Z,100.00
2023-03-30T18:03:53.368Z,100.00
2023-03-30T18:06:21.110Z,100.00
2023-03-30T18:08:48.900Z,100.00
2023-03-30T18:11:16.512Z,100.00
2023-03-30T18:13:44.179Z,100.00
2023-03-30T18:16:13.118Z,100.00
2023-03-30T18:18:40.867Z,100.00
2023-03-30T18:21:11.607Z,100.00
2023-03-30T18:23:39.327Z,100.00
2023-03-30T18:26:10.509Z,100.00
2023-03-30T18:28:40.634Z,100.00
2023-03-30T18:31:08.821Z,100.00
2023-03-30T18:33:36.663Z,100.00
2023-03-30T18:36:08.069Z,100.00
2023-03-30T18:38:37.725Z,100.00
2023-03-30T18:41:05.433Z,100.00
2023-03-30T18:43:33.495Z,100.00
2023-03-30T18:46:02.252Z,100.00
2023-03-30T18:48:30.487Z,100.00
2023-03-30T18:50:58.830Z,100.00
2023-03-30T18:53:27.173Z,100.00
2023-03-30T18:55:57.477Z,100.00
2023-03-30T18:58:26.412Z,100.00
2023-03-30T19:00:54.592Z,100.00
2023-03-30T19:03:23.008Z,100.00
2023-03-30T19:05:51.416Z,100.00
2023-03-30T19:08:20.244Z,100.00
2023-03-30T19:10:49.438Z,100.00
2023-03-30T19:13:19.216Z,100.00
2023-03-30T19:15:47.732Z,100.00
2023-03-30T19:18:15.540Z,100.00
2023-03-30T19:20:43.240Z,100.00
2023-03-30T19:23:12.486Z,100.00
2023-03-30T19:25:40.610Z,100.00
2023-03-30T19:28:08.653Z,100.00
2023-03-30T19:30:39.655Z,100.00
2023-03-30T19:33:09.183Z,100.00
2023-03-30T19:35:38.021Z,100.00
2023-03-30T19:38:05.730Z,100.00
2023-03-30T19:40:33.430Z,100.00
2023-03-30T19:43:01.085Z,100.00
2023-03-30T19:45:28.896Z,100.00
2023-03-30T19:47:58.052Z,100.00
2023-03-30T19:50:26.401Z,100.00
2023-03-30T19:52:55.254Z,100.00
2023-03-30T19:55:22.955Z,100.00
2023-03-30T19:57:50.578Z,100.00
2023-03-30T20:00:18.800Z,100.00
2023-03-30T20:02:47.432Z,100.00
2023-03-30T20:05:16.851Z,100.00
2023-03-30T20:07:44.883Z,100.00
2023-03-30T20:10:13.531Z,100.00
2023-03-30T20:12:41.204Z,100.00
2023-03-30T20:15:09.700Z,100.00
2023-03-30T20:17:38.290Z,100.00
2023-03-30T20:20:09.092Z,100.00
2023-03-30T20:22:39.853Z,100.00
2023-03-30T20:25:08.675Z,100.00
2023-03-30T20:27:36.569Z,100.00
2023-03-30T20:30:05.185Z,100.00
2023-03-30T20:32:33.079Z,100.00
2023-03-30T20:35:00.799Z,100.00
2023-03-30T20:37:28.541Z,100.00
2023-03-30T20:40:03.532Z,100.00
2023-03-30T20:42:31.929Z,100.00
2023-03-30T20:45:01.213Z,100.00
2023-03-30T20:47:30.136Z,100.00
2023-03-30T20:49:58.455Z,100.00
2023-03-30T20:52:26.179Z,100.00
2023-03-30T20:54:54.397Z,100.00
2023-03-30T20:57:25.218Z,100.00
2023-03-30T20:59:54.250Z,100.00
2023-03-30T21:02:22.107Z,100.00
2023-03-30T21:04:50.417Z,100.00
2023-03-30T21:07:18.394Z,100.00
2023-03-30T21:09:47.308Z,100.00
2023-03-30T21:12:15.076Z,100.00
2023-03-30T21:14:45.873Z,100.00
2023-03-30T21:17:13.656Z,100.00
2023-03-30T21:19:41.434Z,100.00
2023-03-30T21:22:11.506Z,100.00
2023-03-30T21:24:39.185Z,100.00
2023-03-30T21:27:06.872Z,100.00
2023-03-30T21:29:34.589Z,100.00
2023-03-30T21:32:03.629Z,100.00
2023-03-30T21:34:31.399Z,100.00
2023-03-30T21:36:59.563Z,100.00
2023-03-30T21:39:27.435Z,100.00
2023-03-30T21:41:55.100Z,100.00
2023-03-30T21:44:23.209Z,100.00
2023-03-30T21:46:50.937Z,100.00
2023-03-30T21:49:20.045Z,100.00
2023-03-30T21:51:48.769Z,100.00
2023-03-30T21:54:17.608Z,100.00
2023-03-30T21:56:45.301Z,100.00
2023-03-30T21:59:13.022Z,100.00
2023-03-30T22:01:40.907Z,100.00
2023-03-30T22:04:08.662Z,100.00
2023-03-30T22:06:37.705Z,100.00
2023-03-30T22:09:05.955Z,100.00
2023-03-30T22:11:33.685Z,100.00
2023-03-30T22:14:01.323Z,100.00
2023-03-30T22:16:31.459Z,100.00
2023-03-30T22:18:59.200Z,100.00
2023-03-30T22:21:29.159Z,100.00
2023-03-30T22:23:58.266Z,100.00
2023-03-30T22:26:27.261Z,100.00
2023-03-30T22:28:55.156Z,100.00
2023-03-30T22:31:22.892Z,100.00
2023-03-30T22:33:50.849Z,100.00
2023-03-30T22:36:20.491Z,100.00
2023-03-30T22:38:48.415Z,100.00
2023-03-30T22:41:18.851Z,100.00
2023-03-30T22:43:46.842Z,100.00
2023-03-30T22:46:14.529Z,100.00
2023-03-30T22:48:42.395Z,100.00
2023-03-30T22:51:14.152Z,100.00
2023-03-30T22:53:42.074Z,100.00
2023-03-30T22:56:09.747Z,100.00
2023-03-30T22:58:38.869Z,100.00
2023-03-30T23:01:10.173Z,100.00
2023-03-30T23:03:38.077Z,100.00
2023-03-30T23:06:06.039Z,100.00
2023-03-30T23:08:33.848Z,100.00
2023-03-30T23:11:04.954Z,100.00
2023-03-30T23:13:33.381Z,100.00
2023-03-30T23:16:02.397Z,100.00
2023-03-30T23:18:30.061Z,100.00
2023-03-30T23:20:58.084Z,100.00
2023-03-30T23:23:25.911Z,100.00
2023-03-30T23:25:54.117Z,100.00
2023-03-30T23:28:21.716Z,100.00
2023-03-30T23:30:49.408Z,100.00
2023-03-30T23:33:18.490Z,100.00
2023-03-30T23:35:48.767Z,100.00
2023-03-30T23:38:17.015Z,100.00
2023-03-30T23:40:44.971Z,100.00
2023-03-30T23:43:12.631Z,100.00
2023-03-30T23:45:43.110Z,100.00
2023-03-30T23:48:10.848Z,100.00
2023-03-30T23:50:40.037Z,100.00
2023-03-30T23:53:07.698Z,100.00
2023-03-30T23:55:35.321Z,100.00
2023-03-30T23:58:02.985Z,100.00
